»·PEaware :: N707EA CYQX-KVNY

N707EA :: CYQX-KVNY

FLIGHT INFORMATION

Flight Status: Arrived
Operator: Privately registered:
United States
More flights under this callsign
Pilot: Alan J. (5709)
Aircraft: GULFSTREAM G-1159C GULFSTREAM 4
(GLF4)
More flights by this aircraft type
Origin: CYQX Gander Intl
Canada
Destination: KVNY Van Nuys
United States
More flights between these airports :: More routes between these airports
Route: +BCE J60 BLD PURSE JANNY3
File this flight plan on PilotEdge
Remarks:
Altitude:
(Current/Filed)
43,000ft
Speed:
(Current/Filed)
480kts
Departed: 16-Nov-17 04:41 PM
Arrived: 16-Nov-17 05:44 PM
Distance/Time
Traveled:
2910nm/1:03
Distance/Time
To Go:
Arrived

Flight Plot

Page will automatically refresh every two minutes.

Flight plan parsing failed; only flown route is shown


Map Options




Map Legend


Flown Route
Filed Route
Departure Airport
Arrival Airport
Navaid (VOR, NDB)
Fix

Horizontal Profiles

Position Reports

Time Latitude Longitude Heading Altitude Ground
Speed
16-Nov-17 16:45 37.440452 -112.692448 237 43072ft 368kts
16-Nov-17 16:46 37.376270 -112.791986 237 43041ft 369kts
16-Nov-17 16:47 37.312109 -112.891189 237 43063ft 367kts
16-Nov-17 16:48 37.248481 -112.989306 237 43080ft 363kts
16-Nov-17 16:49 37.185344 -113.086287 236 43063ft 361kts
16-Nov-17 16:50 37.122246 -113.182946 236 43019ft 360kts
16-Nov-17 16:51 37.059202 -113.279308 236 42976ft 363kts
16-Nov-17 16:52 36.995018 -113.377093 236 42968ft 368kts
16-Nov-17 16:53 36.930005 -113.475822 236 42970ft 373kts
16-Nov-17 16:54 36.864403 -113.575141 236 42971ft 375kts
16-Nov-17 16:55 36.800421 -113.671725 235 42989ft 376kts
16-Nov-17 16:56 36.734007 -113.771782 235 42989ft 378kts
16-Nov-17 16:57 36.667034 -113.872281 235 42582ft 380kts
16-Nov-17 16:58 36.602215 -113.969278 236 41348ft 360kts
16-Nov-17 16:59 36.537171 -114.066384 235 40229ft 374kts
16-Nov-17 17:00 36.469651 -114.166846 235 39974ft 387kts
16-Nov-17 17:01 36.400796 -114.268979 235 39962ft 388kts
16-Nov-17 17:02 36.331842 -114.370945 235 39956ft 388kts
16-Nov-17 17:03 36.262906 -114.472585 235 39959ft 388kts
16-Nov-17 17:04 36.193777 -114.574229 235 39949ft 388kts
16-Nov-17 17:05 36.125030 -114.674911 235 39974ft 388kts
16-Nov-17 17:06 36.055589 -114.776432 235 39968ft 389kts
16-Nov-17 17:07 35.981133 -114.872449 224 39980ft 399kts
16-Nov-17 17:08 35.889782 -114.949437 222 39974ft 403kts
16-Nov-17 17:09 35.812434 -115.012208 221 39972ft 402kts
16-Nov-17 17:10 35.704139 -115.099603 221 39963ft 400kts
16-Nov-17 17:11 35.627366 -115.161384 221 39956ft 397kts
16-Nov-17 17:12 35.534341 -115.262987 232 39943ft 383kts
16-Nov-17 17:13 35.475860 -115.341494 233 38325ft 369kts
16-Nov-17 17:14 35.397130 -115.447808 232 35128ft 362kts
16-Nov-17 17:15 35.340873 -115.523622 233 32830ft 366kts
16-Nov-17 17:16 35.272266 -115.615847 232 30075ft 376kts
16-Nov-17 17:17 35.193013 -115.722034 231 27079ft 389kts
16-Nov-17 17:18 35.132101 -115.804156 236 24858ft 394kts
16-Nov-17 17:19 35.074596 -115.913034 239 24004ft 368kts
16-Nov-17 17:20 35.022187 -116.015831 239 24004ft 351kts
16-Nov-17 17:21 34.971187 -116.115859 240 24019ft 346kts
16-Nov-17 17:22 34.920924 -116.215225 245 24028ft 348kts
16-Nov-17 17:23 34.878041 -116.323944 246 23428ft 380kts
16-Nov-17 17:24 34.832894 -116.439962 246 22444ft 365kts
16-Nov-17 17:25 34.792107 -116.547077 256 22677ft 360kts
16-Nov-17 17:26 34.776879 -116.668243 262 21571ft 356kts
16-Nov-17 17:27 34.764849 -116.789650 262 20713ft 377kts
16-Nov-17 17:28 34.752384 -116.915481 262 19386ft 366kts
16-Nov-17 17:29 34.740618 -117.032128 261 19305ft 347kts
16-Nov-17 17:30 34.728650 -117.148995 261 19315ft 346kts
16-Nov-17 17:31 34.716815 -117.263162 261 19297ft 338kts
16-Nov-17 17:32 34.705119 -117.375245 261 19271ft 333kts
16-Nov-17 17:33 34.693483 -117.485906 261 19200ft 330kts
16-Nov-17 17:34 34.683036 -117.584363 261 19061ft 330kts
16-Nov-17 17:35 34.671534 -117.693292 260 18679ft 323kts
16-Nov-17 17:36 34.659928 -117.802226 260 17275ft 323kts
16-Nov-17 17:37 34.648381 -117.908799 260 15061ft 311kts
16-Nov-17 17:38 34.636849 -118.014114 261 12050ft 314kts
16-Nov-17 17:39 34.620188 -118.113272 254 10034ft 306kts
16-Nov-17 17:40 34.600542 -118.202714 254 9686ft 254kts
16-Nov-17 17:41 34.581957 -118.286074 253 7823ft 257kts
16-Nov-17 17:42 34.563111 -118.370129 253 7589ft 248kts
16-Nov-17 17:43 34.544417 -118.453300 253 6668ft 257kts
16-Nov-17 17:44 34.491878 -118.504769 202 6170ft 261kts
16-Nov-17 17:45 34.413722 -118.510540 185 6046ft 281kts
16-Nov-17 17:46 34.336418 -118.506348 164 3870ft 280kts
16-Nov-17 17:47 34.275999 -118.496675 176 2765ft 177kts
16-Nov-17 17:48 34.231038 -118.492196 178 1188ft 150kts
16-Nov-17 17:49 34.200690 -118.489482 176 761ft 38kts
16-Nov-17 17:50 34.199231 -118.488538 0 758ft 25kts
16-Nov-17 17:51 34.201707 -118.488524 0 763ft 7kts
16-Nov-17 17:52 34.204523 -118.488436 4 770ft 7kts
16-Nov-17 17:53 34.206987 -118.488236 4 776ft 12kts
16-Nov-17 17:54 34.208579 -118.487322 107 779ft 0kts
16-Nov-17 17:55 34.208579 -118.487322 107 779ft 0kts
16-Nov-17 17:56 34.208579 -118.487322 107 779ft 0kts
16-Nov-17 17:57 34.208579 -118.487322 107 779ft 0kts

Navigation Log

Ident Type
Flight plan parsing failed, navigation log unavailable